Aeroporto :
LOGIN :

Iscrizione | Disclaimer

   EN    FR    IT 

 










Sommario :    VFR   VFR Marginale   IFR   IFR Intensivo   IFR Molto Intensivo
Visibilità : 
Base nubi : 
>= 8 km
>= 3000ft
5 / 8 km
1000 / 3000 ft
1500m / 5 km
500 / 1000 ft
800 / 1500m
200 / 500 ft
< 800m
< 200 ft
Simboli :   Temporali  Nebbia  Neve Forte  Precipitazioni Forti  Vento > 20 kt
SIGMETs :   Varie  Temporali  Ghiacco  Turbolenza  Onda orograficha  Ceneri Vulcaniche







- Altitudine del aeroporto : 231 ft
- Codice IATA : WTN


EGXW - RAF Waddington

ULTIMO METAR :
  • 262025Z 04011KT 9999 OVC011 12/10 Q1032 NOSIG RMK GRN GRN

METARs OBSOLETI :
  • 261950Z 04010KT 9999 OVC010 12/10 Q1031 NOSIG RMK GRN GRN
  • 261923Z 05010KT 9999 OVC011 12/10 Q1031 NOSIG RMK GRN GRN
  • 261850Z 03011KT 9999 OVC011 13/10 Q1031 NOSIG RMK GRN GRN
  • 261822Z 05009KT 9999 OVC011 13/10 Q1031 NOSIG RMK GRN GRN
  • 261750Z 05011KT 9999 OVC012 13/11 Q1031 NOSIG GRN GRN

TAF TAF EGXW
Valido dal 26 a 21 ore il 27 a 15 ore UTC


261934Z 2621/2715 04010KT 9999 BKN010
BECMG 2708/2710 SCT015
BECMG 2710/2712 FEW020
Nessun NOTAM noto per questo aeroporto.



MetMap, La meteo Aeronautica in un colpo d'occhio ! - Copyright ORBIFLY Dicembre 2007 - Disclaimer

ORBIFLY MET'MAP TEAM :

Programmazione e sviluppo : Alexandra Zaïnal
Concezione e sviluppo : Baudouin d'Aumeries
Co-Programmazione e sviluppo : Marc-Olivier Méhu
Supporto tecnico e logistico : Manuel Goepfert
Aiuto per la traduzione : Arnaldo La Scala

Contatto : metmap@orbifly.com




FONTI E CREDITI :

   NOAA